Aviation Digital Data Service (ADDS)

Output produced by METARs form (0611 UTC 25 June 2018)
found at http://www.aviationweather.gov/adds/metars/
 
MRLB 250600Z 24003KT 9999 FEW045 BKN200 24/23 A2985 NOSIG
MRLB 250500Z 2506/2606 12005KT 9999 FEW030 TX32/2519Z TN22/2512Z 
     TEMPO 2508/2513 VRB02KT 
     TEMPO 2518/2523 28006KT
       
MRPV 250500Z 2506/2606 09007KT 9999 FEW030 TX27/2519Z TN23/2512Z 
     BECMG 2516/2518 27007KT 
     TEMPO 2520/2524 TSRA FEW015CB
       
MRLM 250500Z 2506/2606 27003KT 9999 SCT020 TX30/2419Z TN23/2512Z 
     TEMPO 2506/2514 5000 TSRA SCT015CB 
     BECMG 2516/2518 04006KT
       
MROC 250600Z 09008KT CAVOK 23/18 A2999 NOSIG
MROC 250500Z 2506/2606 06005KT 9999 FEW030 TX28/2518Z TN18/2510Z 
     BECMG 2515/2517 24007KT 
     TEMPO 2520/2524 TSRA FEW015CB